createdAt,value
2018-06-14T00:01:56.960Z,16.26
2018-06-14T00:04:25.487Z,16.21
2018-06-14T00:06:54.069Z,16.20
2018-06-14T00:09:22.855Z,16.21
2018-06-14T00:11:51.205Z,16.19
2018-06-14T00:14:19.745Z,16.17
2018-06-14T00:16:48.306Z,16.13
2018-06-14T00:19:17.194Z,16.09
2018-06-14T00:21:45.687Z,16.10
2018-06-14T00:24:14.976Z,16.15
2018-06-14T00:26:43.614Z,16.16
2018-06-14T00:29:12.179Z,16.17
2018-06-14T00:31:40.966Z,16.15
2018-06-14T00:34:11.312Z,16.15
2018-06-14T00:36:40.243Z,16.15
2018-06-14T00:39:10.068Z,16.17
2018-06-14T00:41:38.614Z,16.16
2018-06-14T00:44:07.818Z,16.20
2018-06-14T00:46:37.096Z,16.18
2018-06-14T00:49:05.427Z,16.19
2018-06-14T00:51:39.298Z,16.14
2018-06-14T00:54:07.744Z,16.09
2018-06-14T00:57:45.374Z,16.07
2018-06-14T01:00:13.681Z,16.08
2018-06-14T01:02:42.154Z,16.10
2018-06-14T01:05:10.559Z,16.09
2018-06-14T01:07:39.502Z,16.09
2018-06-14T01:10:08.912Z,16.11
2018-06-14T01:18:32.211Z,16.06
2018-06-14T01:21:00.790Z,16.09
2018-06-14T01:23:29.910Z,16.10
2018-06-14T01:26:04.066Z,16.07
2018-06-14T01:28:33.938Z,16.07
2018-06-14T01:31:07.346Z,16.07
2018-06-14T01:33:36.224Z,16.04
2018-06-14T01:36:04.720Z,16.02
2018-06-14T01:38:33.102Z,16.01
2018-06-14T01:43:53.823Z,16.02
2018-06-14T01:46:22.551Z,16.03
2018-06-14T01:48:51.346Z,16.04
2018-06-14T01:51:20.010Z,16.05
2018-06-14T01:53:48.346Z,16.06
2018-06-14T01:56:16.718Z,16.08
2018-06-14T01:58:44.972Z,16.04
2018-06-14T02:01:13.664Z,16.01
2018-06-14T02:03:42.076Z,16.04
2018-06-14T02:06:11.480Z,15.96
2018-06-14T02:08:39.836Z,15.93
2018-06-14T02:11:08.556Z,15.95
2018-06-14T02:13:36.887Z,15.91
2018-06-14T02:16:08.132Z,15.87
2018-06-14T02:18:37.909Z,15.85
2018-06-14T02:21:06.414Z,15.87
2018-06-14T02:23:35.223Z,15.89
2018-06-14T02:26:03.854Z,15.89
2018-06-14T02:28:33.121Z,15.86
2018-06-14T02:42:43.382Z,15.89
2018-06-14T02:45:12.272Z,15.84
2018-06-14T02:47:42.428Z,15.79
2018-06-14T02:50:11.015Z,15.78
2018-06-14T02:52:44.514Z,15.78
2018-06-14T02:55:13.038Z,15.77
2018-06-14T02:57:41.757Z,15.80
2018-06-14T03:00:10.401Z,15.83
2018-06-14T03:02:48.217Z,15.83
2018-06-14T03:05:16.765Z,15.83
2018-06-14T03:07:45.173Z,15.83
2018-06-14T03:10:13.623Z,15.86
2018-06-14T03:12:51.480Z,15.83
2018-06-14T03:15:20.060Z,15.83
2018-06-14T03:17:51.199Z,15.86
2018-06-14T03:20:23.691Z,15.86
2018-06-14T03:25:44.857Z,15.84
2018-06-14T03:28:13.285Z,15.83
2018-06-14T03:31:04.436Z,15.85
2018-06-14T03:33:32.766Z,15.81
2018-06-14T03:36:01.108Z,15.83
2018-06-14T03:38:30.101Z,15.83
2018-06-14T03:40:58.458Z,15.81
2018-06-14T03:43:26.772Z,15.85
2018-06-14T03:45:55.078Z,15.86
2018-06-14T03:48:25.550Z,15.84
2018-06-14T03:50:54.846Z,15.82
2018-06-14T03:53:23.920Z,15.81
2018-06-14T03:55:53.438Z,15.78
2018-06-14T03:58:22.233Z,15.80
2018-06-14T04:00:50.978Z,15.77
2018-06-14T04:03:19.694Z,15.77
2018-06-14T04:05:48.518Z,15.80
2018-06-14T04:08:17.851Z,15.80
2018-06-14T04:10:47.356Z,15.79
2018-06-14T04:13:15.847Z,15.78
2018-06-14T04:15:44.354Z,15.78
2018-06-14T04:18:13.166Z,15.76
2018-06-14T04:20:55.412Z,15.69
2018-06-14T04:23:23.744Z,15.70
2018-06-14T04:25:52.150Z,15.68
2018-06-14T04:28:20.710Z,15.72
2018-06-14T04:30:50.820Z,15.77
2018-06-14T04:33:19.506Z,15.76
2018-06-14T04:35:48.354Z,15.76
2018-06-14T04:38:18.876Z,15.72
2018-06-14T04:41:10.063Z,15.69
2018-06-14T04:43:38.600Z,15.68
2018-06-14T04:46:07.647Z,15.67
2018-06-14T04:48:36.120Z,15.71
2018-06-14T04:51:09.710Z,15.71
2018-06-14T04:53:41.282Z,15.74
2018-06-14T04:56:12.753Z,15.74
2018-06-14T04:58:42.822Z,15.70
2018-06-14T05:04:18.448Z,15.68
2018-06-14T05:06:48.156Z,15.68
2018-06-14T05:09:16.706Z,15.68
2018-06-14T05:14:38.357Z,15.74
2018-06-14T05:17:06.808Z,15.79
2018-06-14T05:19:35.219Z,15.83
2018-06-14T05:22:03.881Z,15.85
2018-06-14T05:24:33.016Z,15.83
2018-06-14T05:27:02.108Z,15.85
2018-06-14T05:29:32.318Z,15.90
2018-06-14T05:32:02.456Z,15.94
2018-06-14T05:34:31.786Z,15.88
2018-06-14T05:37:00.197Z,15.91
2018-06-14T05:39:28.634Z,15.89
2018-06-14T05:41:57.279Z,15.96
2018-06-14T05:44:25.763Z,16.05
2018-06-14T05:46:54.219Z,16.15
2018-06-14T05:49:22.839Z,16.25
2018-06-14T05:55:03.001Z,16.41
2018-06-14T05:57:31.391Z,16.45
2018-06-14T06:00:00.295Z,16.46
2018-06-14T06:02:29.191Z,16.49
2018-06-14T06:04:59.813Z,16.50
2018-06-14T06:07:29.481Z,16.54
2018-06-14T06:09:57.962Z,16.56
2018-06-14T06:12:27.805Z,16.61
2018-06-14T06:14:57.350Z,16.62
2018-06-14T06:17:26.143Z,16.64
2018-06-14T06:19:55.112Z,16.70
2018-06-14T06:22:24.784Z,16.76
2018-06-14T06:24:53.218Z,16.81
2018-06-14T06:27:21.700Z,16.87
2018-06-14T06:29:50.249Z,16.93
2018-06-14T06:32:28.144Z,16.97
2018-06-14T06:34:57.547Z,17.03
2018-06-14T06:40:18.783Z,17.09
2018-06-14T06:54:19.151Z,17.05
2018-06-14T06:56:47.601Z,17.03
2018-06-14T06:59:16.091Z,17.05
2018-06-14T07:01:44.709Z,17.11
2018-06-14T07:04:13.193Z,17.17
2018-06-14T07:06:41.663Z,17.20
2018-06-14T07:09:11.593Z,17.26
2018-06-14T07:17:25.990Z,17.30
2018-06-14T07:19:54.722Z,17.32
2018-06-14T07:22:23.257Z,17.33
2018-06-14T07:24:51.686Z,17.28
2018-06-14T07:27:20.165Z,17.25
2018-06-14T07:29:48.921Z,17.28
2018-06-14T07:32:22.453Z,17.27
2018-06-14T07:34:50.884Z,17.33
2018-06-14T07:37:19.355Z,17.28
2018-06-14T07:39:47.863Z,17.23
2018-06-14T07:42:16.418Z,17.26
2018-06-14T07:44:44.911Z,17.25
2018-06-14T07:47:13.338Z,17.22
2018-06-14T07:49:41.814Z,17.20
2018-06-14T07:58:05.478Z,17.25
2018-06-14T08:00:34.015Z,17.20
2018-06-14T08:03:03.017Z,17.25
2018-06-14T08:05:31.461Z,17.41
2018-06-14T08:07:59.968Z,17.49
2018-06-14T08:10:28.478Z,17.51
2018-06-14T08:12:56.980Z,17.61
2018-06-14T08:15:25.481Z,17.71
2018-06-14T08:17:54.877Z,17.77
2018-06-14T08:20:23.255Z,17.78
2018-06-14T08:22:51.804Z,17.75
2018-06-14T08:25:20.218Z,17.67
2018-06-14T08:27:49.696Z,17.59
2018-06-14T08:30:18.166Z,17.55
2018-06-14T08:35:39.953Z,17.61
2018-06-14T08:38:08.448Z,17.74
2018-06-14T08:40:36.915Z,17.85
2018-06-14T08:43:05.352Z,17.98
2018-06-14T08:45:33.785Z,18.15
2018-06-14T08:48:02.286Z,18.28
2018-06-14T08:50:30.723Z,18.35
2018-06-14T08:52:59.242Z,18.44
2018-06-14T08:55:27.923Z,18.48
2018-06-14T08:57:56.290Z,18.43
2018-06-14T09:00:24.726Z,18.38
2018-06-14T09:02:53.201Z,18.32
2018-06-14T09:05:21.582Z,18.27
2018-06-14T09:07:49.958Z,18.21
2018-06-14T09:10:18.358Z,18.21
2018-06-14T09:12:46.886Z,18.23
2018-06-14T09:15:15.220Z,18.21
2018-06-14T09:17:43.622Z,18.21
2018-06-14T09:20:12.005Z,18.21
2018-06-14T09:22:40.414Z,18.19
2018-06-14T09:25:08.821Z,18.15
2018-06-14T09:27:37.214Z,18.17
2018-06-14T09:30:05.602Z,18.17
2018-06-14T09:32:33.976Z,18.21
2018-06-14T09:35:02.361Z,18.22
2018-06-14T09:37:30.729Z,18.25
2018-06-14T09:39:59.154Z,18.29
2018-06-14T09:42:27.610Z,18.46
2018-06-14T09:44:55.986Z,18.68
2018-06-14T09:47:24.454Z,18.87
2018-06-14T09:49:52.847Z,19.07
2018-06-14T09:52:26.666Z,19.27
2018-06-14T09:54:55.818Z,19.39
2018-06-14T09:57:24.319Z,19.49
2018-06-14T09:59:52.816Z,19.57
2018-06-14T10:02:21.565Z,19.71
2018-06-14T10:04:49.926Z,19.85
2018-06-14T10:07:18.762Z,19.99
2018-06-14T10:09:47.198Z,20.11
2018-06-14T10:12:15.614Z,20.23
2018-06-14T10:14:44.097Z,20.25
2018-06-14T10:17:12.580Z,20.30
2018-06-14T10:19:41.003Z,20.19
2018-06-14T10:22:14.762Z,20.03
2018-06-14T10:24:43.155Z,19.83
2018-06-14T10:27:30.676Z,19.66
2018-06-14T10:29:59.150Z,19.53
2018-06-14T10:32:27.646Z,19.53
2018-06-14T10:34:56.021Z,19.63
2018-06-14T10:37:24.503Z,19.79
2018-06-14T10:39:52.918Z,20.00
2018-06-14T10:42:21.356Z,20.22
2018-06-14T10:44:50.020Z,20.40
2018-06-14T10:47:18.436Z,20.52
2018-06-14T10:49:46.892Z,20.58
2018-06-14T10:52:15.616Z,20.70
2018-06-14T10:54:43.978Z,20.82
2018-06-14T10:57:12.482Z,20.84
2018-06-14T10:59:41.130Z,20.91
2018-06-14T11:02:09.770Z,20.97
2018-06-14T11:04:38.482Z,21.08
2018-06-14T11:07:06.994Z,21.14
2018-06-14T11:09:35.358Z,21.22
2018-06-14T11:12:03.883Z,21.32
2018-06-14T11:14:32.250Z,21.46
2018-06-14T11:17:00.660Z,21.59
2018-06-14T11:19:29.130Z,21.67
2018-06-14T11:21:57.872Z,21.76
2018-06-14T11:24:26.294Z,21.65
2018-06-14T11:26:55.569Z,21.49
2018-06-14T11:29:23.985Z,21.57
2018-06-14T11:31:52.779Z,21.72
2018-06-14T11:34:21.184Z,21.76
2018-06-14T11:36:50.027Z,21.82
2018-06-14T11:39:18.609Z,22.09
2018-06-14T11:41:47.478Z,22.07
2018-06-14T11:44:15.894Z,22.09
2018-06-14T11:46:44.362Z,22.13
2018-06-14T11:49:12.795Z,22.00
2018-06-14T11:51:41.182Z,21.78
2018-06-14T11:54:09.663Z,21.56
2018-06-14T11:56:38.088Z,21.50
2018-06-14T11:59:06.443Z,21.49
2018-06-14T12:01:35.082Z,21.75
2018-06-14T12:04:03.607Z,21.99
2018-06-14T12:06:32.129Z,22.21
2018-06-14T12:09:00.623Z,22.57
2018-06-14T12:11:29.080Z,22.93
2018-06-14T12:13:57.684Z,23.26
2018-06-14T12:16:26.087Z,23.30
2018-06-14T12:18:55.920Z,23.32
2018-06-14T12:21:24.463Z,23.51
2018-06-14T12:23:52.957Z,23.68
2018-06-14T12:26:21.814Z,23.73
2018-06-14T12:28:50.271Z,23.89
2018-06-14T12:31:18.858Z,23.79
2018-06-14T12:33:47.224Z,23.35
2018-06-14T12:36:15.853Z,23.32
2018-06-14T12:38:44.349Z,23.39
2018-06-14T12:41:12.704Z,23.23
2018-06-14T12:43:41.679Z,23.30
2018-06-14T12:46:10.289Z,23.33
2018-06-14T12:48:38.633Z,23.46
2018-06-14T12:51:07.089Z,23.59
2018-06-14T12:53:35.603Z,23.67
2018-06-14T12:56:04.053Z,23.75
2018-06-14T12:58:32.535Z,23.83
2018-06-14T13:01:01.047Z,24.03
2018-06-14T13:03:29.618Z,24.17
2018-06-14T13:05:58.009Z,23.95
2018-06-14T13:08:26.534Z,23.87
2018-06-14T13:10:55.043Z,23.57
2018-06-14T13:13:23.457Z,23.54
2018-06-14T13:15:52.202Z,23.55
2018-06-14T13:18:20.590Z,23.76
2018-06-14T13:20:49.045Z,23.95
2018-06-14T13:23:17.448Z,24.11
2018-06-14T13:25:45.826Z,24.10
2018-06-14T13:28:15.957Z,23.87
2018-06-14T13:30:45.776Z,23.59
2018-06-14T13:33:14.983Z,23.64
2018-06-14T13:35:43.546Z,23.77
2018-06-14T13:38:12.192Z,23.95
2018-06-14T13:40:40.710Z,24.10
2018-06-14T13:43:09.109Z,24.24
2018-06-14T13:45:38.309Z,24.33
2018-06-14T13:48:07.384Z,24.33
2018-06-14T13:50:35.781Z,24.32
2018-06-14T13:53:05.035Z,24.25
2018-06-14T13:58:09.106Z,24.36
2018-06-14T14:00:37.641Z,24.49
2018-06-14T14:03:06.701Z,24.45
2018-06-14T14:05:35.152Z,24.50
2018-06-14T14:08:04.142Z,24.47
2018-06-14T14:10:33.056Z,24.39
2018-06-14T14:13:01.618Z,24.38
2018-06-14T14:15:30.453Z,24.38
2018-06-14T14:17:59.114Z,24.32
2018-06-14T14:20:27.518Z,24.40
2018-06-14T14:22:56.245Z,24.40
2018-06-14T14:25:26.016Z,24.36
2018-06-14T14:27:54.703Z,24.37
2018-06-14T14:30:23.308Z,24.38
2018-06-14T14:33:01.757Z,24.35
2018-06-14T14:35:31.344Z,24.21
2018-06-14T14:38:00.314Z,24.24
2018-06-14T14:40:29.218Z,24.27
2018-06-14T14:43:03.332Z,24.40
2018-06-14T14:45:33.037Z,24.47
2018-06-14T14:48:02.138Z,24.47
2018-06-14T14:50:30.884Z,24.45
2018-06-14T14:52:59.438Z,24.34
2018-06-14T14:55:27.893Z,24.36
2018-06-14T14:57:56.888Z,24.45
2018-06-14T15:00:25.399Z,24.49
2018-06-14T15:02:54.866Z,24.54
2018-06-14T15:05:26.365Z,24.55
2018-06-14T15:07:55.766Z,24.50
2018-06-14T15:10:24.675Z,24.42
2018-06-14T15:12:54.118Z,24.31
2018-06-14T15:15:24.446Z,24.16
2018-06-14T15:17:53.154Z,23.94
2018-06-14T15:20:21.578Z,23.89
2018-06-14T15:22:51.088Z,23.76
2018-06-14T15:25:19.654Z,23.69
2018-06-14T15:27:48.118Z,23.62
2018-06-14T15:30:16.592Z,23.62
2018-06-14T15:32:45.974Z,23.52
2018-06-14T15:35:14.561Z,23.44
2018-06-14T15:37:43.190Z,23.39
2018-06-14T15:40:12.026Z,23.30
2018-06-14T15:42:41.676Z,23.21
2018-06-14T15:45:10.178Z,23.19
2018-06-14T15:47:38.654Z,23.17
2018-06-14T15:50:08.104Z,23.14
2018-06-14T15:52:36.786Z,23.09
2018-06-14T15:55:16.458Z,23.04
2018-06-14T15:57:44.938Z,22.99
2018-06-14T16:00:13.549Z,22.98
2018-06-14T16:02:41.993Z,22.99
2018-06-14T16:05:15.843Z,22.96
2018-06-14T16:07:44.688Z,22.97
2018-06-14T16:10:14.002Z,22.94
2018-06-14T16:12:42.498Z,22.90
2018-06-14T16:15:10.977Z,22.90
2018-06-14T16:17:39.410Z,22.84
2018-06-14T16:20:07.950Z,22.80
2018-06-14T16:22:36.637Z,22.77
2018-06-14T16:25:05.104Z,22.74
2018-06-14T16:27:33.611Z,22.74
2018-06-14T16:30:02.257Z,22.72
2018-06-14T16:32:30.784Z,22.75
2018-06-14T16:34:59.296Z,22.76
2018-06-14T16:37:27.675Z,22.73
2018-06-14T16:39:56.160Z,22.73
2018-06-14T16:42:24.750Z,22.72
2018-06-14T16:44:53.226Z,22.71
2018-06-14T16:47:21.715Z,22.70
2018-06-14T16:49:50.204Z,22.69
2018-06-14T16:52:19.053Z,22.67
2018-06-14T16:54:47.599Z,22.67
2018-06-14T16:57:16.096Z,22.63
2018-06-14T16:59:44.710Z,22.59
2018-06-14T17:02:13.370Z,22.59
2018-06-14T17:04:41.854Z,22.59
2018-06-14T17:07:10.358Z,22.60
2018-06-14T17:09:38.835Z,22.61
2018-06-14T17:12:07.366Z,22.60
2018-06-14T17:14:35.922Z,22.61
2018-06-14T17:17:04.308Z,22.58
2018-06-14T17:19:32.713Z,22.55
2018-06-14T17:22:01.084Z,22.52
2018-06-14T17:24:29.420Z,22.51
2018-06-14T17:26:58.018Z,22.51
2018-06-14T17:29:27.367Z,22.50
2018-06-14T17:31:56.052Z,22.49
2018-06-14T17:34:24.577Z,22.46
2018-06-14T17:36:55.248Z,22.43
2018-06-14T17:39:24.015Z,22.38
2018-06-14T17:41:54.133Z,22.40
2018-06-14T17:44:23.635Z,22.39
2018-06-14T17:46:53.651Z,22.40
2018-06-14T17:49:22.785Z,22.40
2018-06-14T17:51:51.594Z,22.36
2018-06-14T17:54:20.676Z,22.34
2018-06-14T17:56:49.458Z,22.32
2018-06-14T17:59:18.629Z,22.30
2018-06-14T18:01:47.207Z,22.30
2018-06-14T18:04:15.840Z,22.30
2018-06-14T18:06:44.456Z,22.30
2018-06-14T18:09:13.179Z,22.28
2018-06-14T18:11:41.800Z,22.25
2018-06-14T18:14:10.367Z,22.25
2018-06-14T18:16:39.233Z,22.24
2018-06-14T18:19:08.375Z,22.24
2018-06-14T18:21:42.419Z,22.23
2018-06-14T18:24:14.599Z,22.19
2018-06-14T18:26:47.606Z,22.16
2018-06-14T18:29:16.333Z,22.11
2018-06-14T18:31:45.003Z,22.09
2018-06-14T18:34:13.718Z,22.08
2018-06-14T18:36:42.348Z,22.07
2018-06-14T18:39:11.754Z,22.08
2018-06-14T18:41:45.681Z,22.08
2018-06-14T18:44:15.440Z,22.07
2018-06-14T18:46:45.299Z,22.07
2018-06-14T18:49:14.815Z,22.08
2018-06-14T18:51:43.863Z,22.08
2018-06-14T18:54:12.605Z,22.07
2018-06-14T18:56:41.199Z,22.07
2018-06-14T18:59:09.783Z,22.06
2018-06-14T19:01:38.553Z,22.05
2018-06-14T19:04:08.347Z,22.03
2018-06-14T19:06:38.475Z,22.00
2018-06-14T19:09:09.399Z,21.96
2018-06-14T19:11:38.088Z,21.91
2018-06-14T19:14:06.933Z,21.84
2018-06-14T19:16:36.677Z,21.80
2018-06-14T19:19:05.435Z,21.79
2018-06-14T19:21:34.273Z,21.76
2018-06-14T19:24:03.216Z,21.75
2018-06-14T19:26:32.150Z,21.75
2018-06-14T19:29:01.200Z,21.72
2018-06-14T19:31:39.099Z,21.71
2018-06-14T19:34:07.607Z,21.71
2018-06-14T19:36:36.296Z,21.72
2018-06-14T19:39:06.850Z,21.70
2018-06-14T19:41:40.609Z,21.68
2018-06-14T19:44:09.049Z,21.66
2018-06-14T19:46:38.131Z,21.64
2018-06-14T19:49:06.679Z,21.61
2018-06-14T19:51:40.467Z,21.60
2018-06-14T19:54:09.198Z,21.60
2018-06-14T19:56:37.805Z,21.56
2018-06-14T19:59:06.735Z,21.51
2018-06-14T20:01:36.094Z,21.49
2018-06-14T20:04:05.432Z,21.47
2018-06-14T20:06:34.471Z,21.42
2018-06-14T20:09:04.351Z,21.41
2018-06-14T20:11:33.585Z,21.39
2018-06-14T20:14:02.872Z,21.37
2018-06-14T20:16:31.760Z,21.37
2018-06-14T20:19:00.471Z,21.36
2018-06-14T20:21:29.243Z,21.32
2018-06-14T20:23:58.949Z,21.28
2018-06-14T20:26:27.513Z,21.21
2018-06-14T20:28:56.113Z,21.13
2018-06-14T20:31:24.855Z,21.10
2018-06-14T20:33:53.302Z,21.04
2018-06-14T20:36:22.294Z,20.99
2018-06-14T20:38:50.867Z,20.97
2018-06-14T20:41:19.493Z,20.95
2018-06-14T20:43:48.096Z,20.90
2018-06-14T20:46:16.829Z,20.86
2018-06-14T20:48:45.282Z,20.86
2018-06-14T20:51:13.741Z,20.86
2018-06-14T20:53:42.191Z,20.86
2018-06-14T20:56:10.825Z,20.81
2018-06-14T20:58:39.213Z,20.78
2018-06-14T21:01:07.778Z,20.70
2018-06-14T21:03:36.176Z,20.68
2018-06-14T21:06:04.708Z,20.66
2018-06-14T21:08:33.183Z,20.66
2018-06-14T21:11:01.675Z,20.51
2018-06-14T21:13:30.107Z,20.39
2018-06-14T21:15:58.425Z,20.20
2018-06-14T21:18:26.845Z,20.04
2018-06-14T21:20:55.217Z,19.93
2018-06-14T21:23:23.887Z,19.82
2018-06-14T21:25:52.517Z,19.78
2018-06-14T21:28:20.847Z,19.74
2018-06-14T21:30:49.322Z,19.74
2018-06-14T21:33:17.824Z,19.80
2018-06-14T21:35:46.233Z,19.79
2018-06-14T21:38:14.652Z,19.81
2018-06-14T21:40:43.091Z,19.79
2018-06-14T21:43:11.525Z,19.78
2018-06-14T21:45:39.965Z,19.79
2018-06-14T21:48:08.284Z,19.76
2018-06-14T21:50:36.614Z,19.73
2018-06-14T21:53:05.018Z,19.71
2018-06-14T21:55:33.480Z,19.70
2018-06-14T21:58:01.865Z,19.73
2018-06-14T22:00:30.172Z,19.73
2018-06-14T22:03:03.913Z,19.75
2018-06-14T22:05:32.307Z,19.76
2018-06-14T22:08:00.728Z,19.72
2018-06-14T22:10:29.322Z,19.65
2018-06-14T22:12:58.486Z,19.60
2018-06-14T22:15:27.530Z,19.59
2018-06-14T22:17:55.970Z,19.65
2018-06-14T22:20:24.309Z,19.70
2018-06-14T22:22:52.746Z,19.75
2018-06-14T22:25:21.169Z,19.78
2018-06-14T22:27:49.505Z,19.71
2018-06-14T22:30:17.885Z,19.69
2018-06-14T22:32:46.868Z,19.62
2018-06-14T22:35:28.845Z,19.61
2018-06-14T22:37:57.349Z,19.58
2018-06-14T22:40:25.957Z,19.60
2018-06-14T22:42:54.344Z,19.51
2018-06-14T22:45:22.703Z,19.42
2018-06-14T22:47:51.125Z,19.36
2018-06-14T22:50:31.117Z,19.32
2018-06-14T22:53:05.327Z,19.31
2018-06-14T22:55:33.746Z,19.31
2018-06-14T22:58:02.106Z,19.26
2018-06-14T23:00:40.191Z,19.26
2018-06-14T23:03:08.671Z,19.24
2018-06-14T23:05:37.152Z,19.19
2018-06-14T23:08:05.520Z,19.20
2018-06-14T23:10:45.359Z,19.12
2018-06-14T23:13:20.005Z,18.98
2018-06-14T23:15:48.391Z,18.88
2018-06-14T23:18:16.686Z,18.83
2018-06-14T23:20:45.027Z,18.77
2018-06-14T23:23:13.365Z,18.73
2018-06-14T23:25:41.763Z,18.68
2018-06-14T23:28:10.221Z,18.66
2018-06-14T23:30:38.761Z,18.67
2018-06-14T23:33:12.633Z,18.68
2018-06-14T23:35:41.357Z,18.64
2018-06-14T23:38:09.732Z,18.60
2018-06-14T23:40:38.041Z,18.59
2018-06-14T23:43:06.928Z,18.65
2018-06-14T23:45:35.577Z,18.74
2018-06-14T23:48:04.292Z,18.86
2018-06-14T23:50:33.203Z,18.93
2018-06-14T23:53:01.892Z,18.90
2018-06-14T23:55:31.522Z,18.91
2018-06-14T23:58:00.163Z,18.86
